createdAt,value
2023-03-20T00:01:50.844Z,58.32
2023-03-20T00:05:53.813Z,57.92
2023-03-20T00:09:57.837Z,58.19
2023-03-20T00:14:04.195Z,58.37
2023-03-20T00:18:15.528Z,58.67
2023-03-20T00:22:18.456Z,58.62
2023-03-20T00:26:34.742Z,58.74
2023-03-20T00:30:39.039Z,58.77
2023-03-20T00:34:42.828Z,58.81
2023-03-20T00:38:45.855Z,58.76
2023-03-20T00:42:52.587Z,58.75
2023-03-20T00:46:59.192Z,59.20
2023-03-20T00:51:03.535Z,60.12
2023-03-20T00:55:08.710Z,60.86
2023-03-20T00:59:19.161Z,61.18
2023-03-20T01:03:27.149Z,61.49
2023-03-20T01:07:30.286Z,61.71
2023-03-20T01:11:33.716Z,61.46
2023-03-20T01:15:37.452Z,61.45
2023-03-20T01:19:42.647Z,61.38
2023-03-20T01:23:45.613Z,61.35
2023-03-20T01:27:52.037Z,61.57
2023-03-20T01:31:55.839Z,61.24
2023-03-20T01:36:03.356Z,61.44
2023-03-20T01:40:18.927Z,61.50
2023-03-20T01:44:23.937Z,61.31
2023-03-20T01:48:57.056Z,61.29
2023-03-20T01:53:08.697Z,61.21
2023-03-20T01:57:19.536Z,61.41
2023-03-20T02:01:25.447Z,61.38
2023-03-20T02:05:28.767Z,61.33
2023-03-20T02:09:33.275Z,61.38
2023-03-20T02:13:37.954Z,61.45
2023-03-20T02:17:42.707Z,61.71
2023-03-20T02:22:20.809Z,62.11
2023-03-20T02:26:39.305Z,62.62
2023-03-20T02:30:59.559Z,63.25
2023-03-20T02:35:38.080Z,63.34
2023-03-20T02:39:59.077Z,63.10
2023-03-20T02:44:09.885Z,63.40
2023-03-20T02:48:18.596Z,63.44
2023-03-20T02:52:27.154Z,63.80
2023-03-20T02:56:36.908Z,63.76
2023-03-20T03:00:47.485Z,63.84
2023-03-20T03:04:54.912Z,64.48
2023-03-20T03:09:05.017Z,64.25
2023-03-20T03:13:15.363Z,64.53
2023-03-20T03:17:20.974Z,64.59
2023-03-20T03:21:25.331Z,64.74
2023-03-20T03:25:31.430Z,64.50
2023-03-20T03:29:39.567Z,64.38
2023-03-20T03:33:46.183Z,64.47
2023-03-20T03:37:59.328Z,64.84
2023-03-20T03:42:08.182Z,65.21
2023-03-20T03:46:19.032Z,65.47
2023-03-20T03:50:29.200Z,65.62
2023-03-20T03:54:40.504Z,65.39
2023-03-20T03:59:12.249Z,65.24
2023-03-20T04:03:18.238Z,65.40
2023-03-20T04:07:21.838Z,65.70
2023-03-20T04:11:28.509Z,65.96
2023-03-20T04:15:31.677Z,66.12
2023-03-20T04:19:36.197Z,66.24
2023-03-20T04:23:39.331Z,66.43
2023-03-20T04:27:42.917Z,66.22
2023-03-20T04:31:53.810Z,66.07
2023-03-20T04:36:13.525Z,66.01
2023-03-20T04:40:16.806Z,66.21
2023-03-20T04:44:20.552Z,66.32
2023-03-20T04:48:24.626Z,66.59
2023-03-20T04:52:29.164Z,66.93
2023-03-20T04:56:32.201Z,66.82
2023-03-20T05:00:48.113Z,67.01
2023-03-20T05:04:51.059Z,66.60
2023-03-20T05:08:55.744Z,66.50
2023-03-20T05:12:59.030Z,66.37
2023-03-20T05:17:12.238Z,66.81
2023-03-20T05:21:37.959Z,66.73
2023-03-20T05:25:53.772Z,66.60
2023-03-20T05:30:32.191Z,66.61
2023-03-20T05:34:41.148Z,66.71
2023-03-20T05:38:58.081Z,66.71
2023-03-20T05:43:29.256Z,66.86
2023-03-20T05:47:59.834Z,67.01
2023-03-20T05:52:02.730Z,67.26
2023-03-20T05:56:16.537Z,67.50
2023-03-20T06:00:29.281Z,67.83
2023-03-20T06:04:55.185Z,68.09
2023-03-20T06:09:07.314Z,68.12
2023-03-20T06:13:10.915Z,68.25
2023-03-20T06:17:16.605Z,68.62
2023-03-20T06:21:24.721Z,68.53
2023-03-20T06:25:29.626Z,68.72
2023-03-20T06:29:32.808Z,68.66
2023-03-20T06:33:49.076Z,68.87
2023-03-20T06:37:52.224Z,68.78
2023-03-20T06:41:59.588Z,69.04
2023-03-20T06:46:02.628Z,69.12
2023-03-20T06:50:11.616Z,69.37
2023-03-20T06:54:14.596Z,69.32
2023-03-20T06:58:18.740Z,69.70
2023-03-20T07:02:25.928Z,70.01
2023-03-20T07:06:30.347Z,70.16
2023-03-20T07:10:33.308Z,70.25
2023-03-20T07:14:36.420Z,70.01
2023-03-20T07:18:43.340Z,70.37
2023-03-20T07:22:49.667Z,70.01
2023-03-20T07:27:00.016Z,69.55
2023-03-20T07:31:03.134Z,69.49
2023-03-20T07:35:09.344Z,69.55
2023-03-20T07:39:15.129Z,68.19
2023-03-20T07:43:23.798Z,68.17
2023-03-20T07:47:49.922Z,68.15
2023-03-20T07:51:54.536Z,67.75
2023-03-20T07:56:00.170Z,67.76
2023-03-20T08:00:04.376Z,67.34
2023-03-20T08:04:14.586Z,66.95
2023-03-20T08:08:17.843Z,66.41
2023-03-20T08:12:22.632Z,65.70
2023-03-20T08:16:26.024Z,65.45
2023-03-20T08:20:29.148Z,65.49
2023-03-20T08:24:32.260Z,64.98
2023-03-20T08:28:46.963Z,65.02
2023-03-20T08:32:51.436Z,65.24
2023-03-20T08:36:54.677Z,64.92
2023-03-20T08:40:58.310Z,64.80
2023-03-20T08:45:02.710Z,63.84
2023-03-20T08:49:05.594Z,63.83
2023-03-20T08:53:08.491Z,63.94
2023-03-20T08:57:12.017Z,63.51
2023-03-20T09:01:16.474Z,63.10
2023-03-20T09:05:19.537Z,62.18
2023-03-20T09:09:29.224Z,62.18
2023-03-20T09:13:32.394Z,61.91
2023-03-20T09:17:36.895Z,62.19
2023-03-20T09:21:40.033Z,61.91
2023-03-20T09:25:43.088Z,61.54
2023-03-20T09:29:45.991Z,61.28
2023-03-20T09:33:50.422Z,60.69
2023-03-20T09:37:54.278Z,59.88
2023-03-20T09:42:01.727Z,60.11
2023-03-20T09:46:21.360Z,60.53
2023-03-20T09:50:33.037Z,60.01
2023-03-20T09:54:53.145Z,60.11
2023-03-20T09:58:58.597Z,59.37
2023-03-20T10:03:04.499Z,59.22
2023-03-20T10:07:13.970Z,58.88
2023-03-20T10:11:33.526Z,58.59
2023-03-20T10:15:47.521Z,58.90
2023-03-20T10:19:53.560Z,57.97
2023-03-20T10:24:04.443Z,57.86
2023-03-20T10:28:13.949Z,57.79
2023-03-20T10:32:26.243Z,57.43
2023-03-20T10:36:48.052Z,57.35
2023-03-20T10:40:52.975Z,57.22
2023-03-20T10:44:59.775Z,57.05
2023-03-20T10:49:30.981Z,57.06
2023-03-20T10:53:38.502Z,55.41
2023-03-20T10:57:48.955Z,55.62
2023-03-20T11:01:51.868Z,54.53
2023-03-20T11:06:09.234Z,54.28
2023-03-20T11:10:17.020Z,54.13
2023-03-20T11:14:24.326Z,54.32
2023-03-20T11:18:27.809Z,53.44
2023-03-20T11:22:31.286Z,53.83
2023-03-20T11:26:38.586Z,52.67
2023-03-20T11:31:01.363Z,51.42
2023-03-20T11:35:20.528Z,52.55
2023-03-20T11:39:26.862Z,52.51
2023-03-20T11:43:29.951Z,51.95
2023-03-20T11:47:36.683Z,51.67
2023-03-20T11:51:40.844Z,51.55
2023-03-20T11:55:47.229Z,50.74
2023-03-20T11:59:50.180Z,50.92
2023-03-20T12:04:03.586Z,50.93
2023-03-20T12:08:14.946Z,50.85
2023-03-20T12:12:32.510Z,50.25
2023-03-20T12:16:38.183Z,50.40
2023-03-20T12:20:47.752Z,50.35
2023-03-20T12:24:59.782Z,49.51
2023-03-20T12:29:09.093Z,49.86
2023-03-20T12:33:19.661Z,49.00
2023-03-20T12:37:24.365Z,49.44
2023-03-20T12:41:31.510Z,49.45
2023-03-20T12:45:39.975Z,49.22
2023-03-20T12:49:52.605Z,48.98
2023-03-20T12:54:06.505Z,48.55
2023-03-20T12:58:22.731Z,48.57
2023-03-20T13:02:35.023Z,48.71
2023-03-20T13:06:51.756Z,49.06
2023-03-20T13:11:04.045Z,49.17
2023-03-20T13:15:21.682Z,49.97
2023-03-20T13:19:35.214Z,49.82
2023-03-20T13:23:45.500Z,50.06
2023-03-20T13:27:55.641Z,50.04
2023-03-20T13:32:09.146Z,50.29
2023-03-20T13:36:22.115Z,50.02
2023-03-20T13:40:27.738Z,49.64
2023-03-20T13:44:33.565Z,49.95
2023-03-20T13:48:39.118Z,50.08
2023-03-20T13:52:50.012Z,49.51
2023-03-20T13:56:58.700Z,49.74
2023-03-20T14:01:09.178Z,49.94
2023-03-20T14:05:15.466Z,49.91
2023-03-20T14:09:33.599Z,50.26
2023-03-20T14:13:37.084Z,50.23
2023-03-20T14:17:45.533Z,49.83
2023-03-20T14:21:50.097Z,50.03
2023-03-20T14:25:56.457Z,50.17
2023-03-20T14:30:39.412Z,50.36
2023-03-20T14:34:48.602Z,50.48
2023-03-20T14:39:03.819Z,50.60
2023-03-20T14:43:15.714Z,50.89
2023-03-20T14:47:27.222Z,50.75
2023-03-20T14:51:42.708Z,50.75
2023-03-20T14:55:52.502Z,50.80
2023-03-20T14:59:56.243Z,50.93
2023-03-20T15:04:03.632Z,50.79
2023-03-20T15:08:11.253Z,50.94
2023-03-20T15:12:18.217Z,50.91
2023-03-20T15:16:28.542Z,50.85
2023-03-20T15:20:31.920Z,50.96
2023-03-20T15:24:36.386Z,50.96
2023-03-20T15:28:39.976Z,50.63
2023-03-20T15:32:44.064Z,50.64
2023-03-20T15:36:47.137Z,50.42
2023-03-20T15:40:52.086Z,50.38
2023-03-20T15:44:56.973Z,50.47
2023-03-20T15:49:00.399Z,50.64
2023-03-20T15:53:04.511Z,50.80
2023-03-20T15:57:10.630Z,50.32
2023-03-20T16:01:19.266Z,50.14
2023-03-20T16:05:26.608Z,49.96
2023-03-20T16:09:30.140Z,49.85
2023-03-20T16:13:39.034Z,49.90
2023-03-20T16:17:42.363Z,50.04
2023-03-20T16:21:51.812Z,50.32
2023-03-20T16:25:58.711Z,50.15
2023-03-20T16:30:07.797Z,50.47
2023-03-20T16:34:19.646Z,50.89
2023-03-20T16:38:26.114Z,51.02
2023-03-20T16:42:30.950Z,51.51
2023-03-20T16:46:35.483Z,51.81
2023-03-20T16:50:40.305Z,52.10
2023-03-20T16:54:45.919Z,52.23
2023-03-20T16:58:49.349Z,52.49
2023-03-20T17:03:01.267Z,52.88
2023-03-20T17:07:09.383Z,53.38
2023-03-20T17:11:15.640Z,53.74
2023-03-20T17:15:21.145Z,53.79
2023-03-20T17:19:25.998Z,54.08
2023-03-20T17:23:28.985Z,54.39
2023-03-20T17:27:33.331Z,54.55
2023-03-20T17:31:36.343Z,54.81
2023-03-20T17:35:40.949Z,54.60
2023-03-20T17:39:43.996Z,55.07
2023-03-20T17:43:47.569Z,55.37
2023-03-20T17:47:51.698Z,55.73
2023-03-20T17:51:56.543Z,55.80
2023-03-20T17:55:59.780Z,56.77
2023-03-20T18:00:05.823Z,56.27
2023-03-20T18:04:09.066Z,56.62
2023-03-20T18:08:16.794Z,56.44
2023-03-20T18:12:21.129Z,56.79
2023-03-20T18:16:26.844Z,57.50
2023-03-20T18:20:32.085Z,57.16
2023-03-20T18:24:36.587Z,57.93
2023-03-20T18:28:39.711Z,57.63
2023-03-20T18:32:42.756Z,58.18
2023-03-20T18:36:46.748Z,58.29
2023-03-20T18:40:51.136Z,58.32
2023-03-20T18:44:54.439Z,58.56
2023-03-20T18:48:58.034Z,58.84
2023-03-20T18:53:01.174Z,58.99
2023-03-20T18:57:05.834Z,58.54
2023-03-20T19:01:11.342Z,58.51
2023-03-20T19:05:14.439Z,58.43
2023-03-20T19:09:18.432Z,58.51
2023-03-20T19:13:24.769Z,58.64
2023-03-20T19:17:27.937Z,58.61
2023-03-20T19:21:32.228Z,58.93
2023-03-20T19:25:36.747Z,58.75
2023-03-20T19:29:41.068Z,58.89
2023-03-20T19:33:44.507Z,59.09
2023-03-20T19:37:47.800Z,59.44
2023-03-20T19:41:51.807Z,59.53
2023-03-20T19:45:58.568Z,59.08
2023-03-20T19:50:01.855Z,59.48
2023-03-20T19:54:05.108Z,59.81
2023-03-20T19:58:08.856Z,60.06
2023-03-20T20:02:13.449Z,59.64
2023-03-20T20:06:16.824Z,59.88
2023-03-20T20:10:21.084Z,59.89
2023-03-20T20:14:24.209Z,60.40
2023-03-20T20:18:30.408Z,60.19
2023-03-20T20:22:33.946Z,60.78
2023-03-20T20:26:41.229Z,60.28
2023-03-20T20:30:54.603Z,60.36
2023-03-20T20:39:21.977Z,60.88
2023-03-20T20:43:56.703Z,60.76
2023-03-20T20:47:48.908Z,60.96
2023-03-20T20:51:53.201Z,61.24
2023-03-20T20:55:56.229Z,61.50
2023-03-20T21:00:00.325Z,61.42
2023-03-20T21:04:03.417Z,61.68
2023-03-20T21:08:07.999Z,61.40
2023-03-20T21:12:22.854Z,61.39
2023-03-20T21:16:33.628Z,61.88
2023-03-20T21:20:36.613Z,62.00
2023-03-20T21:24:41.255Z,61.89
2023-03-20T21:28:44.191Z,61.49
2023-03-20T21:32:47.337Z,61.80
2023-03-20T21:36:51.359Z,62.20
2023-03-20T21:40:55.935Z,62.31
2023-03-20T21:45:56.132Z,61.99
2023-03-20T21:58:51.125Z,62.14
2023-03-20T22:02:34.762Z,62.41
2023-03-20T22:11:47.566Z,62.14
2023-03-20T22:33:55.676Z,61.92
2023-03-20T22:38:21.806Z,61.88
2023-03-20T22:42:30.665Z,61.94
2023-03-20T22:46:36.367Z,62.07
2023-03-20T22:50:36.268Z,62.21
2023-03-20T22:54:39.368Z,62.44
2023-03-20T22:58:42.274Z,62.38
2023-03-20T23:02:45.460Z,62.22
2023-03-20T23:06:49.978Z,62.74
2023-03-20T23:10:53.321Z,62.44
2023-03-20T23:14:56.374Z,63.13
2023-03-20T23:18:59.352Z,63.27
2023-03-20T23:23:03.674Z,63.55
2023-03-20T23:27:06.585Z,63.09
2023-03-20T23:31:12.279Z,63.49
2023-03-20T23:35:15.415Z,63.39
2023-03-20T23:39:19.856Z,63.38
2023-03-20T23:43:22.759Z,63.65
2023-03-20T23:47:29.877Z,63.21
2023-03-20T23:51:35.595Z,63.41
2023-03-20T23:55:40.303Z,63.46
2023-03-20T23:59:43.950Z,63.21
